createdAt,value
2018-03-06T00:01:50.963Z,63.17
2018-03-06T00:04:20.070Z,60.40
2018-03-06T00:06:50.454Z,58.20
2018-03-06T00:09:19.578Z,63.70
2018-03-06T00:11:48.684Z,65.10
2018-03-06T00:14:18.551Z,62.07
2018-03-06T00:16:47.673Z,66.70
2018-03-06T00:19:16.764Z,68.60
2018-03-06T00:21:45.882Z,62.63
2018-03-06T00:24:15.738Z,63.80
2018-03-06T00:26:44.837Z,72.27
2018-03-06T00:29:13.933Z,74.83
2018-03-06T00:31:43.029Z,70.70
2018-03-06T00:34:12.122Z,73.93
2018-03-06T00:36:41.251Z,83.90
2018-03-06T00:39:10.338Z,84.73
2018-03-06T00:41:40.238Z,69.93
2018-03-06T00:44:09.343Z,85.47
2018-03-06T00:46:38.491Z,88.57
2018-03-06T00:49:08.338Z,87.33
2018-03-06T00:51:37.425Z,88.20
2018-03-06T00:54:06.522Z,86.83
2018-03-06T00:56:35.614Z,91.33
2018-03-06T00:59:04.723Z,83.23
2018-03-06T01:01:33.809Z,88.83
2018-03-06T01:04:02.907Z,93.33
2018-03-06T01:06:32.012Z,87.50
2018-03-06T01:09:01.114Z,91.77
2018-03-06T01:11:30.210Z,100.97
2018-03-06T01:13:59.319Z,88.47
2018-03-06T01:16:28.432Z,85.63
2018-03-06T01:18:58.301Z,88.37
2018-03-06T01:21:27.385Z,95.67
2018-03-06T01:23:56.564Z,100.07
2018-03-06T01:26:26.431Z,91.60
2018-03-06T01:28:55.537Z,94.03
2018-03-06T01:31:24.638Z,98.27
2018-03-06T01:33:53.783Z,104.47
2018-03-06T01:36:22.878Z,104.57
2018-03-06T01:38:51.994Z,96.83
2018-03-06T01:41:21.087Z,103.13
2018-03-06T01:43:50.204Z,114.73
2018-03-06T01:46:20.092Z,97.00
2018-03-06T01:48:49.181Z,99.80
2018-03-06T01:51:18.401Z,119.10
2018-03-06T01:53:47.491Z,99.23
2018-03-06T01:56:16.607Z,110.43
2018-03-06T01:58:45.702Z,99.93
2018-03-06T02:01:15.583Z,113.47
2018-03-06T02:03:44.679Z,118.03
2018-03-06T02:06:13.770Z,104.10
2018-03-06T02:08:42.879Z,111.57
2018-03-06T02:11:11.970Z,105.77
2018-03-06T02:13:41.085Z,102.40
2018-03-06T02:16:10.193Z,121.00
2018-03-06T02:18:39.316Z,118.33
2018-03-06T02:21:08.403Z,133.10
2018-03-06T02:23:37.512Z,118.67
2018-03-06T02:26:07.371Z,113.50
2018-03-06T02:28:36.478Z,116.17
2018-03-06T02:31:05.579Z,108.53
2018-03-06T02:33:35.461Z,119.03
2018-03-06T02:36:04.551Z,114.33
2018-03-06T02:38:34.419Z,110.87
2018-03-06T02:41:03.506Z,111.60
2018-03-06T02:43:32.628Z,105.70
2018-03-06T02:46:11.474Z,117.63
2018-03-06T02:48:41.354Z,111.97
2018-03-06T02:51:10.453Z,121.77
2018-03-06T02:53:39.570Z,135.60
2018-03-06T02:56:09.434Z,111.10
2018-03-06T02:58:38.541Z,106.87
2018-03-06T03:01:08.407Z,117.37
2018-03-06T03:03:38.286Z,117.10
2018-03-06T03:06:07.403Z,109.93
2018-03-06T03:08:37.263Z,105.87
2018-03-06T03:11:07.155Z,107.30
2018-03-06T03:13:36.249Z,116.03
2018-03-06T03:16:05.355Z,108.97
2018-03-06T03:18:34.532Z,111.27
2018-03-06T03:21:04.395Z,117.63
2018-03-06T03:23:33.511Z,117.30
2018-03-06T03:26:02.606Z,110.30
2018-03-06T03:28:31.713Z,113.23
2018-03-06T03:31:00.824Z,125.40
2018-03-06T03:33:30.710Z,117.93
2018-03-06T03:35:59.850Z,114.77
2018-03-06T03:38:28.946Z,114.47
2018-03-06T03:40:58.831Z,122.53
2018-03-06T03:43:27.917Z,122.23
2018-03-06T03:45:57.805Z,129.83
2018-03-06T03:48:26.900Z,127.37
2018-03-06T03:50:56.009Z,136.83
2018-03-06T03:53:25.149Z,132.70
2018-03-06T03:55:55.034Z,115.00
2018-03-06T03:58:24.121Z,122.93
2018-03-06T04:00:54.018Z,117.77
2018-03-06T04:03:23.106Z,125.30
2018-03-06T04:05:52.218Z,118.57
2018-03-06T04:08:21.322Z,120.67
2018-03-06T04:10:50.457Z,129.70
2018-03-06T04:13:20.315Z,110.93
2018-03-06T04:15:49.501Z,118.43
2018-03-06T04:18:18.629Z,129.17
2018-03-06T04:20:47.732Z,128.47
2018-03-06T04:23:16.857Z,119.13
2018-03-06T04:25:46.708Z,122.20
2018-03-06T04:28:17.780Z,117.67
2018-03-06T04:30:46.875Z,126.40
2018-03-06T04:33:15.978Z,110.87
2018-03-06T04:35:45.068Z,119.50
2018-03-06T04:38:14.182Z,119.63
2018-03-06T04:40:44.058Z,118.93
2018-03-06T04:43:13.174Z,125.87
2018-03-06T04:45:42.262Z,129.77
2018-03-06T04:48:11.381Z,131.73
2018-03-06T04:50:40.486Z,123.20
2018-03-06T04:53:09.575Z,135.37
2018-03-06T04:55:38.692Z,136.47
2018-03-06T04:58:08.563Z,131.63
2018-03-06T05:00:38.932Z,129.40
2018-03-06T05:03:08.058Z,135.57
2018-03-06T05:05:37.181Z,146.23
2018-03-06T05:08:06.285Z,132.50
2018-03-06T05:10:35.403Z,139.00
2018-03-06T05:13:04.488Z,136.93
2018-03-06T05:15:33.604Z,135.87
2018-03-06T05:18:03.462Z,137.97
2018-03-06T05:20:32.569Z,127.03
2018-03-06T05:23:01.703Z,146.93
2018-03-06T05:25:30.798Z,128.90
2018-03-06T05:28:00.664Z,126.50
2018-03-06T05:30:29.776Z,136.27
2018-03-06T05:32:58.869Z,138.10
2018-03-06T05:35:28.041Z,139.17
2018-03-06T05:37:57.135Z,137.40
2018-03-06T05:40:26.278Z,134.40
2018-03-06T05:42:55.378Z,148.60
2018-03-06T05:45:24.512Z,144.97
2018-03-06T05:47:53.631Z,122.97
2018-03-06T05:50:22.749Z,130.53
2018-03-06T05:52:51.851Z,133.77
2018-03-06T05:55:21.003Z,138.37
2018-03-06T05:57:50.121Z,125.20
2018-03-06T06:00:19.242Z,124.03
2018-03-06T06:02:48.338Z,139.30
2018-03-06T06:05:17.474Z,135.73
2018-03-06T06:07:47.338Z,134.43
2018-03-06T06:10:16.432Z,139.20
2018-03-06T06:12:45.538Z,145.90
2018-03-06T06:15:15.420Z,139.67
2018-03-06T06:17:44.503Z,137.90
2018-03-06T06:20:13.590Z,138.20
2018-03-06T06:22:42.750Z,142.27
2018-03-06T06:25:11.839Z,143.50
2018-03-06T06:27:40.952Z,152.07
2018-03-06T06:30:10.123Z,146.37
2018-03-06T06:32:39.221Z,138.67
2018-03-06T06:35:08.309Z,146.83
2018-03-06T06:37:38.219Z,144.13
2018-03-06T06:40:07.321Z,141.10
2018-03-06T06:42:37.044Z,146.83
2018-03-06T06:45:06.899Z,144.30
2018-03-06T06:47:36.783Z,149.20
2018-03-06T06:50:05.910Z,135.30
2018-03-06T06:52:36.125Z,165.17
2018-03-06T06:55:06.018Z,140.27
2018-03-06T06:57:35.153Z,136.27
2018-03-06T07:00:05.063Z,162.27
2018-03-06T07:02:35.082Z,142.23
2018-03-06T07:05:04.173Z,146.30
2018-03-06T07:07:34.050Z,141.93
2018-03-06T07:10:03.178Z,141.00
2018-03-06T07:12:32.270Z,140.63
2018-03-06T07:15:01.364Z,144.40
2018-03-06T07:17:30.473Z,134.97
2018-03-06T07:20:00.333Z,135.40
2018-03-06T07:22:29.460Z,154.93
2018-03-06T07:24:58.557Z,138.43
2018-03-06T07:27:27.684Z,136.57
2018-03-06T07:29:57.521Z,136.93
2018-03-06T07:32:27.494Z,133.73
2018-03-06T07:34:57.342Z,142.97
2018-03-06T07:37:26.450Z,149.50
2018-03-06T07:39:55.558Z,147.70
2018-03-06T07:42:24.656Z,143.20
2018-03-06T07:44:53.784Z,136.20
2018-03-06T07:47:22.876Z,153.10
2018-03-06T07:49:51.996Z,146.00
2018-03-06T07:52:21.878Z,154.00
2018-03-06T07:54:50.988Z,151.97
2018-03-06T07:57:20.110Z,157.07
2018-03-06T07:59:49.202Z,142.80
2018-03-06T08:02:18.387Z,143.13
2018-03-06T08:04:47.465Z,148.90
2018-03-06T08:07:16.596Z,156.57
2018-03-06T08:09:46.443Z,152.03
2018-03-06T08:12:15.542Z,144.83
2018-03-06T08:14:45.419Z,133.53
2018-03-06T08:17:14.531Z,163.00
2018-03-06T08:19:43.699Z,141.27
2018-03-06T08:22:12.824Z,153.17
2018-03-06T08:24:41.929Z,151.77
2018-03-06T08:27:11.092Z,138.40
2018-03-06T08:29:40.978Z,154.93
2018-03-06T08:32:10.078Z,144.73
2018-03-06T08:34:39.192Z,155.63
2018-03-06T08:37:09.086Z,147.13
2018-03-06T08:39:38.179Z,157.50
2018-03-06T08:42:07.284Z,159.60
2018-03-06T08:44:36.407Z,151.80
2018-03-06T08:47:06.282Z,168.50
2018-03-06T08:49:35.382Z,141.57
2018-03-06T08:52:04.494Z,146.30
2018-03-06T08:54:33.602Z,160.63
2018-03-06T08:57:03.474Z,144.57
2018-03-06T08:59:32.585Z,151.33
2018-03-06T09:02:01.679Z,143.33
2018-03-06T09:04:30.807Z,154.73
2018-03-06T09:07:00.721Z,155.33
2018-03-06T09:09:30.583Z,151.00
2018-03-06T09:11:59.687Z,146.60
2018-03-06T09:14:28.786Z,155.57
2018-03-06T09:16:57.906Z,150.13
2018-03-06T09:19:27.758Z,159.43
2018-03-06T09:21:56.877Z,156.90
2018-03-06T09:24:26.009Z,148.43
2018-03-06T09:26:55.095Z,155.80
2018-03-06T09:29:24.214Z,153.27
2018-03-06T09:31:54.062Z,161.47
2018-03-06T09:34:23.184Z,159.73
2018-03-06T09:36:52.311Z,146.47
2018-03-06T09:39:21.416Z,150.73
2018-03-06T09:41:51.299Z,159.37
2018-03-06T09:44:21.164Z,143.57
2018-03-06T09:46:50.273Z,157.83
2018-03-06T09:49:20.148Z,144.17
2018-03-06T09:51:49.253Z,150.67
2018-03-06T09:54:19.129Z,165.70
2018-03-06T09:56:48.261Z,155.37
2018-03-06T09:59:17.379Z,153.00
2018-03-06T10:01:46.469Z,141.47
2018-03-06T10:04:15.582Z,146.83
2018-03-06T10:06:44.720Z,147.73
2018-03-06T10:09:13.793Z,153.97
2018-03-06T10:11:42.897Z,144.50
2018-03-06T10:14:11.989Z,147.83
2018-03-06T10:16:41.116Z,155.63
2018-03-06T10:19:10.241Z,149.03
2018-03-06T10:21:39.356Z,150.00
2018-03-06T10:24:08.455Z,151.70
2018-03-06T10:26:37.606Z,143.83
2018-03-06T10:29:06.702Z,150.83
2018-03-06T10:31:35.823Z,156.80
2018-03-06T10:34:04.911Z,158.77
2018-03-06T10:36:34.793Z,154.00
2018-03-06T10:39:03.891Z,156.50
2018-03-06T10:41:33.024Z,149.83
2018-03-06T10:44:02.905Z,150.97
2018-03-06T10:46:32.016Z,153.63
2018-03-06T10:49:01.110Z,148.77
2018-03-06T10:51:30.978Z,145.40
2018-03-06T10:54:00.085Z,162.33
2018-03-06T10:56:29.174Z,164.10
2018-03-06T10:58:58.311Z,150.83
2018-03-06T11:01:33.222Z,147.07
2018-03-06T11:04:02.335Z,141.57
2018-03-06T11:06:31.420Z,150.07
2018-03-06T11:09:00.534Z,144.30
2018-03-06T11:11:30.382Z,140.97
2018-03-06T11:13:59.509Z,147.50
2018-03-06T11:16:28.618Z,150.27
2018-03-06T11:18:57.736Z,145.17
2018-03-06T11:21:27.617Z,145.47
2018-03-06T11:23:56.735Z,164.57
2018-03-06T11:26:25.828Z,148.73
2018-03-06T11:28:54.941Z,145.60
2018-03-06T11:31:24.814Z,156.17
2018-03-06T11:33:53.942Z,150.60
2018-03-06T11:36:23.041Z,154.07
2018-03-06T11:38:52.906Z,154.20
2018-03-06T11:41:22.020Z,158.80
2018-03-06T11:43:51.135Z,153.30
2018-03-06T11:46:21.222Z,159.37
2018-03-06T11:48:50.338Z,154.33
2018-03-06T11:51:20.193Z,148.33
2018-03-06T11:53:50.084Z,154.20
2018-03-06T11:56:19.963Z,159.73
2018-03-06T11:58:49.115Z,136.90
2018-03-06T12:01:18.976Z,162.80
2018-03-06T12:03:48.105Z,138.50
2018-03-06T12:06:17.242Z,134.10
2018-03-06T12:08:46.361Z,138.07
2018-03-06T12:11:15.477Z,152.80
2018-03-06T12:13:45.337Z,147.40
2018-03-06T12:16:14.441Z,145.30
2018-03-06T12:18:43.572Z,146.40
2018-03-06T12:21:12.656Z,157.93
2018-03-06T12:23:41.774Z,129.30
2018-03-06T12:26:12.395Z,140.03
2018-03-06T12:28:42.277Z,144.67
2018-03-06T12:31:12.135Z,146.23
2018-03-06T12:33:41.233Z,139.90
2018-03-06T12:36:10.357Z,134.33
2018-03-06T12:38:39.441Z,141.40
2018-03-06T12:41:08.554Z,149.60
2018-03-06T12:43:38.417Z,137.33
2018-03-06T12:46:07.520Z,127.97
2018-03-06T12:48:36.641Z,141.50
2018-03-06T12:51:05.759Z,142.87
2018-03-06T12:53:35.649Z,136.17
2018-03-06T12:56:04.741Z,154.07
2018-03-06T12:58:33.862Z,143.17
2018-03-06T13:01:03.720Z,137.03
2018-03-06T13:03:33.613Z,135.47
2018-03-06T13:06:02.719Z,139.97
2018-03-06T13:08:31.869Z,138.80
2018-03-06T13:11:00.980Z,128.83
2018-03-06T13:13:30.887Z,136.63
2018-03-06T13:16:00.012Z,138.60
2018-03-06T13:18:29.132Z,134.00
2018-03-06T13:20:58.238Z,131.30
2018-03-06T13:23:27.349Z,128.27
2018-03-06T13:25:56.480Z,130.57
2018-03-06T13:28:26.390Z,122.17
2018-03-06T13:30:55.496Z,118.60
2018-03-06T13:33:25.394Z,107.37
2018-03-06T13:35:54.503Z,95.23
2018-03-06T13:38:24.391Z,88.37
2018-03-06T13:40:53.487Z,81.50
2018-03-06T13:43:22.615Z,82.20
2018-03-06T13:45:52.504Z,88.60
2018-03-06T13:48:21.605Z,90.80
2018-03-06T13:50:51.496Z,102.00
2018-03-06T13:53:19.899Z,84.30
2018-03-06T13:55:48.875Z,90.57
2018-03-06T13:58:18.010Z,88.93
2018-03-06T14:00:47.904Z,97.20
2018-03-06T14:03:17.012Z,101.47
2018-03-06T14:05:46.897Z,91.40
2018-03-06T14:08:16.001Z,82.83
2018-03-06T14:10:45.113Z,79.03
2018-03-06T14:13:14.235Z,79.10
2018-03-06T14:15:43.347Z,90.70
2018-03-06T14:18:12.446Z,85.90
2018-03-06T14:20:41.574Z,92.07
2018-03-06T14:23:11.262Z,93.00
2018-03-06T14:25:40.347Z,91.07
2018-03-06T14:28:09.476Z,86.13
2018-03-06T14:30:38.602Z,83.97
2018-03-06T14:33:08.486Z,86.63
2018-03-06T14:35:37.614Z,83.57
2018-03-06T14:38:07.482Z,84.23
2018-03-06T14:40:36.611Z,83.87
2018-03-06T14:43:05.743Z,80.30
2018-03-06T14:45:34.839Z,85.77
2018-03-06T14:48:03.987Z,91.97
2018-03-06T14:50:33.868Z,92.50
2018-03-06T14:53:02.983Z,82.50
2018-03-06T14:55:32.109Z,89.30
2018-03-06T14:58:01.217Z,86.03
2018-03-06T15:00:31.114Z,89.10
2018-03-06T15:03:00.229Z,91.93
2018-03-06T15:05:30.108Z,90.50
2018-03-06T15:07:59.235Z,85.13
2018-03-06T15:10:28.386Z,89.17
2018-03-06T15:12:57.493Z,90.63
2018-03-06T15:15:26.605Z,84.37
2018-03-06T15:17:55.721Z,84.57
2018-03-06T15:20:24.831Z,85.30
2018-03-06T15:22:53.959Z,88.23
2018-03-06T15:25:23.851Z,83.67
2018-03-06T15:27:52.973Z,88.27
2018-03-06T15:30:22.081Z,92.77
2018-03-06T15:32:51.235Z,92.00
2018-03-06T15:35:21.098Z,84.80
2018-03-06T15:37:50.227Z,85.77
2018-03-06T15:40:20.122Z,81.97
2018-03-06T15:42:49.311Z,79.53
2018-03-06T15:45:18.430Z,83.23
2018-03-06T15:47:47.590Z,88.03
2018-03-06T15:50:17.496Z,76.70
2018-03-06T15:52:46.676Z,68.20
2018-03-06T15:55:15.800Z,72.97
2018-03-06T15:57:44.944Z,69.83
2018-03-06T16:00:14.895Z,74.30
2018-03-06T16:02:44.042Z,70.93
2018-03-06T16:05:13.204Z,70.87
2018-03-06T16:07:42.370Z,80.37
2018-03-06T16:10:11.550Z,93.33
2018-03-06T16:12:41.460Z,82.80
2018-03-06T16:15:10.603Z,81.57
2018-03-06T16:17:39.758Z,80.27
2018-03-06T16:20:09.675Z,86.70
2018-03-06T16:22:39.580Z,82.27
2018-03-06T16:25:09.499Z,81.43
2018-03-06T16:27:39.431Z,77.60
2018-03-06T16:30:09.372Z,76.93
2018-03-06T16:32:38.511Z,81.67
2018-03-06T16:35:07.678Z,72.63
2018-03-06T16:37:36.821Z,89.33
2018-03-06T16:40:05.955Z,77.77
2018-03-06T16:42:35.096Z,76.87
2018-03-06T16:45:04.263Z,84.37
2018-03-06T16:47:33.396Z,75.73
2018-03-06T16:50:02.614Z,90.77
2018-03-06T16:52:32.516Z,78.33
2018-03-06T16:55:01.688Z,75.50
2018-03-06T16:57:31.591Z,86.77
2018-03-06T17:00:00.744Z,79.60
2018-03-06T17:02:30.670Z,75.07
2018-03-06T17:04:59.815Z,73.23
2018-03-06T17:07:28.991Z,66.47
2018-03-06T17:09:58.125Z,64.00
2018-03-06T17:12:27.266Z,81.93
2018-03-06T17:14:56.407Z,71.83
2018-03-06T17:17:25.551Z,69.33
2018-03-06T17:19:55.447Z,70.80
2018-03-06T17:22:25.354Z,65.13
2018-03-06T17:24:54.509Z,73.17
2018-03-06T17:27:23.627Z,66.90
2018-03-06T17:29:52.767Z,73.13
2018-03-06T17:32:22.673Z,55.90
2018-03-06T17:34:52.589Z,58.70
2018-03-06T17:37:22.501Z,49.10
2018-03-06T17:39:52.426Z,50.13
2018-03-06T17:42:22.348Z,49.93
2018-03-06T17:44:51.535Z,51.73
2018-03-06T17:47:21.458Z,48.80
2018-03-06T17:49:50.648Z,38.60
2018-03-06T17:52:19.785Z,38.37
2018-03-06T17:54:48.936Z,39.80
2018-03-06T17:57:18.866Z,36.37
2018-03-06T17:59:48.764Z,43.87
2018-03-06T18:02:18.669Z,33.40
2018-03-06T18:04:47.801Z,34.50
2018-03-06T18:07:16.966Z,24.40
2018-03-06T18:09:46.108Z,28.20
2018-03-06T18:12:15.369Z,28.60
2018-03-06T18:14:45.261Z,25.97
2018-03-06T18:17:15.173Z,21.30
2018-03-06T18:19:44.319Z,22.50
2018-03-06T18:22:13.478Z,20.80
2018-03-06T18:24:42.612Z,20.10
2018-03-06T18:27:11.737Z,17.67
2018-03-06T18:29:40.907Z,18.77
2018-03-06T18:32:10.282Z,19.07
2018-03-06T18:34:39.433Z,19.30
2018-03-06T18:37:08.569Z,20.00
2018-03-06T18:39:37.721Z,18.20
2018-03-06T18:42:06.903Z,19.20
2018-03-06T18:44:36.793Z,17.47
2018-03-06T18:47:07.360Z,19.53
2018-03-06T18:49:36.522Z,18.73
2018-03-06T18:52:06.821Z,16.13
2018-03-06T18:54:35.975Z,19.67
2018-03-06T18:57:06.036Z,22.00
2018-03-06T18:59:35.263Z,22.27
2018-03-06T19:02:24.933Z,18.63
2018-03-06T19:05:12.554Z,18.60
2018-03-06T19:07:41.715Z,20.83
2018-03-06T19:10:10.866Z,25.17
2018-03-06T19:12:40.784Z,23.10
2018-03-06T19:15:10.714Z,18.90
2018-03-06T19:17:39.878Z,21.63
2018-03-06T19:20:09.023Z,27.33
2018-03-06T19:22:38.195Z,26.90
2018-03-06T19:25:08.123Z,24.07
2018-03-06T19:27:37.303Z,24.47
2018-03-06T19:30:07.203Z,28.97
2018-03-06T19:32:36.622Z,28.37
2018-03-06T19:35:06.519Z,28.10
2018-03-06T19:37:35.618Z,28.97
2018-03-06T19:40:04.760Z,27.80
2018-03-06T19:42:33.891Z,26.60
2018-03-06T19:45:03.020Z,31.97
2018-03-06T19:47:32.959Z,28.67
2018-03-06T19:50:02.143Z,26.87
2018-03-06T19:52:32.042Z,27.70
2018-03-06T19:55:01.934Z,29.03
2018-03-06T19:57:32.879Z,28.17
2018-03-06T20:00:02.010Z,30.97
2018-03-06T20:02:31.926Z,32.13
2018-03-06T20:05:01.782Z,34.23
2018-03-06T20:07:30.951Z,31.03
2018-03-06T20:10:00.123Z,33.73
2018-03-06T20:12:29.222Z,30.70
2018-03-06T20:15:03.971Z,33.80
2018-03-06T20:17:33.098Z,33.80
2018-03-06T20:20:02.228Z,34.83
2018-03-06T20:22:31.334Z,33.03
2018-03-06T20:25:06.664Z,32.83
2018-03-06T20:27:35.768Z,37.30
2018-03-06T20:30:05.654Z,40.00
2018-03-06T20:32:40.203Z,42.23
2018-03-06T20:35:10.090Z,35.33
2018-03-06T20:37:39.213Z,37.50
2018-03-06T20:40:14.636Z,33.53
2018-03-06T20:42:43.763Z,37.97
2018-03-06T20:45:13.629Z,34.53
2018-03-06T20:47:42.726Z,41.40
2018-03-06T20:50:11.829Z,39.50
2018-03-06T20:52:46.357Z,36.00
2018-03-06T20:55:15.473Z,34.30
2018-03-06T20:57:44.614Z,36.77
2018-03-06T21:00:13.758Z,40.37
2018-03-06T21:02:42.947Z,34.23
2018-03-06T21:05:12.069Z,33.90
2018-03-06T21:07:41.968Z,36.83
2018-03-06T21:10:11.088Z,35.97
2018-03-06T21:12:40.990Z,34.37
2018-03-06T21:15:10.109Z,31.57
2018-03-06T21:17:40.013Z,31.97
2018-03-06T21:20:09.885Z,31.30
2018-03-06T21:22:39.022Z,32.17
2018-03-06T21:25:08.868Z,36.90
2018-03-06T21:27:37.966Z,31.37
2018-03-06T21:30:07.094Z,31.07
2018-03-06T21:32:36.191Z,31.50
2018-03-06T21:35:05.282Z,36.07
2018-03-06T21:37:34.402Z,31.27
2018-03-06T21:40:03.509Z,32.10
2018-03-06T21:55:31.489Z,34.77
2018-03-06T21:58:00.608Z,31.80
2018-03-06T22:00:29.692Z,33.07
2018-03-06T22:02:58.794Z,30.53
2018-03-06T22:05:27.886Z,31.97
2018-03-06T22:07:57.772Z,28.30
2018-03-06T22:10:27.626Z,31.60
2018-03-06T22:12:56.718Z,26.57
2018-03-06T22:15:25.825Z,24.80
2018-03-06T22:17:54.910Z,24.30
2018-03-06T22:20:24.058Z,27.00
2018-03-06T22:22:53.950Z,27.27
2018-03-06T22:25:23.043Z,21.70
2018-03-06T22:27:52.147Z,23.97
2018-03-06T22:30:21.263Z,26.43
2018-03-06T22:32:51.130Z,25.30
2018-03-06T22:35:20.270Z,26.63
2018-03-06T22:37:49.351Z,22.47
2018-03-06T22:40:18.454Z,21.73
2018-03-06T22:42:47.557Z,23.77
2018-03-06T22:45:16.659Z,27.43
2018-03-06T22:47:46.505Z,21.67
2018-03-06T22:50:15.635Z,17.43
2018-03-06T22:52:44.767Z,22.07
2018-03-06T22:55:13.850Z,24.60
2018-03-06T22:57:43.712Z,25.30
2018-03-06T23:00:12.819Z,23.43
2018-03-06T23:02:41.942Z,20.57
2018-03-06T23:05:11.062Z,22.83
2018-03-06T23:07:40.963Z,22.43
2018-03-06T23:10:10.086Z,21.73
2018-03-06T23:12:39.949Z,23.20
2018-03-06T23:15:09.059Z,22.33
2018-03-06T23:17:38.225Z,22.43
2018-03-06T23:20:07.307Z,25.00
2018-03-06T23:22:36.918Z,22.67
2018-03-06T23:25:06.005Z,25.23
2018-03-06T23:27:35.089Z,24.40
2018-03-06T23:30:04.255Z,23.17
2018-03-06T23:32:34.095Z,19.67
2018-03-06T23:35:03.942Z,24.43
2018-03-06T23:37:33.086Z,25.83
2018-03-06T23:40:02.974Z,28.90
2018-03-06T23:42:32.074Z,24.23
2018-03-06T23:45:01.173Z,20.53
2018-03-06T23:47:30.270Z,24.67
2018-03-06T23:49:59.394Z,20.67
2018-03-06T23:52:28.482Z,21.27
2018-03-06T23:54:57.613Z,26.93
2018-03-06T23:57:26.706Z,24.40
2018-03-06T23:59:55.806Z,24.90
